createdAt,value
2022-09-01T00:00:30.143Z,28.50
2022-09-01T00:03:04.972Z,28.46
2022-09-01T00:05:34.336Z,28.65
2022-09-01T00:08:02.498Z,28.61
2022-09-01T00:10:32.459Z,28.04
2022-09-01T00:13:00.698Z,28.22
2022-09-01T00:15:28.979Z,28.14
2022-09-01T00:17:57.415Z,28.38
2022-09-01T00:20:25.734Z,28.19
2022-09-01T00:22:53.876Z,28.27
2022-09-01T00:25:23.468Z,28.45
2022-09-01T00:27:53.266Z,27.75
2022-09-01T00:30:22.019Z,28.32
2022-09-01T00:32:50.100Z,28.40
2022-09-01T00:35:20.190Z,27.96
2022-09-01T00:37:48.785Z,28.47
2022-09-01T00:40:18.461Z,27.95
2022-09-01T00:42:49.087Z,28.58
2022-09-01T00:45:19.415Z,28.28
2022-09-01T00:47:50.192Z,28.48
2022-09-01T00:50:19.645Z,28.21
2022-09-01T00:52:50.948Z,28.06
2022-09-01T00:55:20.396Z,27.31
2022-09-01T00:57:49.178Z,28.68
2022-09-01T01:00:21.506Z,28.26
2022-09-01T01:02:56.377Z,28.50
2022-09-01T01:05:28.091Z,28.76
2022-09-01T01:07:57.551Z,28.67
2022-09-01T01:10:26.798Z,28.54
2022-09-01T01:12:55.004Z,28.73
2022-09-01T01:15:24.829Z,28.50
2022-09-01T01:17:53.092Z,28.77
2022-09-01T01:20:40.899Z,28.17
2022-09-01T01:23:16.682Z,28.08
2022-09-01T01:25:49.998Z,27.93
2022-09-01T01:28:21.185Z,28.31
2022-09-01T01:30:52.825Z,27.91
2022-09-01T01:33:23.373Z,28.34
2022-09-01T01:35:56.417Z,28.27
2022-09-01T01:38:25.192Z,28.33
2022-09-01T01:40:56.030Z,28.35
2022-09-01T01:43:24.644Z,28.54
2022-09-01T01:45:56.836Z,28.07
2022-09-01T01:48:25.085Z,28.89
2022-09-01T01:50:55.048Z,28.72
2022-09-01T01:53:23.661Z,28.71
2022-09-01T01:55:52.105Z,28.98
2022-09-01T01:58:24.707Z,28.56
2022-09-01T02:00:54.946Z,29.06
2022-09-01T02:03:25.568Z,28.87
2022-09-01T02:05:55.686Z,29.10
2022-09-01T02:08:26.354Z,29.38
2022-09-01T02:10:56.004Z,29.63
2022-09-01T02:13:31.456Z,29.29
2022-09-01T02:16:02.488Z,29.30
2022-09-01T02:18:34.344Z,29.25
2022-09-01T02:21:03.342Z,29.45
2022-09-01T02:23:32.744Z,29.46
2022-09-01T02:26:16.152Z,29.40
2022-09-01T02:28:54.622Z,29.05
2022-09-01T02:31:24.323Z,29.53
2022-09-01T02:33:54.589Z,29.43
2022-09-01T02:36:25.528Z,29.13
2022-09-01T02:38:55.249Z,28.97
2022-09-01T02:41:30.236Z,28.99
2022-09-01T02:44:02.415Z,28.56
2022-09-01T02:46:31.542Z,28.84
2022-09-01T02:49:00.751Z,29.01
2022-09-01T02:51:29.362Z,28.89
2022-09-01T02:53:58.004Z,28.72
2022-09-01T02:56:27.773Z,28.67
2022-09-01T02:58:56.843Z,28.94
2022-09-01T03:01:30.598Z,28.94
2022-09-01T03:04:02.009Z,29.19
2022-09-01T03:06:34.412Z,28.88
2022-09-01T03:09:04.272Z,29.27
2022-09-01T03:11:35.163Z,28.87
2022-09-01T03:14:05.198Z,29.12
2022-09-01T03:16:34.970Z,28.71
2022-09-01T03:19:04.349Z,29.15
2022-09-01T03:21:33.000Z,29.00
2022-09-01T03:24:03.801Z,29.00
2022-09-01T03:26:32.488Z,29.14
2022-09-01T03:29:00.829Z,29.13
2022-09-01T03:31:31.003Z,28.84
2022-09-01T03:34:03.472Z,28.55
2022-09-01T03:36:33.434Z,29.21
2022-09-01T03:39:02.310Z,29.08
2022-09-01T03:41:31.400Z,29.15
2022-09-01T03:44:00.334Z,29.11
2022-09-01T03:46:35.698Z,29.26
2022-09-01T03:49:08.208Z,29.38
2022-09-01T03:51:39.301Z,29.81
2022-09-01T03:54:08.059Z,29.70
2022-09-01T03:56:36.109Z,29.63
2022-09-01T03:59:04.317Z,29.58
2022-09-01T04:01:41.128Z,29.58
2022-09-01T04:04:13.848Z,29.37
2022-09-01T04:06:42.707Z,29.36
2022-09-01T04:09:11.188Z,29.25
2022-09-01T04:11:45.751Z,29.07
2022-09-01T04:14:14.847Z,29.31
2022-09-01T04:17:00.428Z,29.35
2022-09-01T04:19:30.721Z,28.68
2022-09-01T04:22:01.050Z,28.73
2022-09-01T04:24:31.178Z,29.24
2022-09-01T04:27:02.457Z,29.32
2022-09-01T04:29:32.914Z,29.38
2022-09-01T04:32:04.004Z,29.03
2022-09-01T04:34:37.621Z,28.89
2022-09-01T04:37:09.955Z,28.66
2022-09-01T04:39:39.415Z,29.04
2022-09-01T04:42:09.453Z,29.13
2022-09-01T04:44:38.106Z,29.50
2022-09-01T04:47:17.201Z,29.71
2022-09-01T04:49:48.496Z,29.18
2022-09-01T04:52:16.994Z,29.84
2022-09-01T04:54:45.351Z,29.93
2022-09-01T04:57:13.651Z,29.98
2022-09-01T04:59:43.334Z,29.58
2022-09-01T05:02:11.609Z,29.16
2022-09-01T05:04:46.444Z,28.92
2022-09-01T05:07:16.372Z,28.60
2022-09-01T05:09:46.067Z,29.54
2022-09-01T05:12:16.039Z,29.45
2022-09-01T05:14:48.833Z,28.64
2022-09-01T05:17:17.372Z,28.69
2022-09-01T05:19:48.640Z,28.57
2022-09-01T05:22:22.325Z,28.33
2022-09-01T05:24:54.986Z,28.76
2022-09-01T05:27:24.036Z,28.52
2022-09-01T05:29:53.532Z,28.35
2022-09-01T05:32:22.000Z,27.52
2022-09-01T05:34:53.088Z,27.47
2022-09-01T05:37:23.077Z,26.75
2022-09-01T05:39:52.561Z,26.75
2022-09-01T05:42:21.838Z,27.24
2022-09-01T05:44:52.574Z,27.31
2022-09-01T05:47:22.209Z,26.90
2022-09-01T05:49:50.988Z,26.56
2022-09-01T05:52:25.697Z,25.68
2022-09-01T05:55:00.229Z,24.11
2022-09-01T05:57:34.607Z,23.14
2022-09-01T06:00:11.146Z,21.93
2022-09-01T06:02:40.169Z,21.39
2022-09-01T06:05:09.785Z,21.79
2022-09-01T06:07:39.844Z,21.71
2022-09-01T06:10:09.954Z,21.06
2022-09-01T06:12:38.804Z,21.14
2022-09-01T06:15:16.301Z,18.74
2022-09-01T06:17:46.140Z,17.16
2022-09-01T06:20:18.477Z,16.34
2022-09-01T06:22:47.623Z,15.33
2022-09-01T06:25:18.753Z,14.51
2022-09-01T06:27:48.400Z,13.98
2022-09-01T06:30:24.166Z,13.12
2022-09-01T06:32:52.944Z,12.78
2022-09-01T06:35:25.234Z,12.86
2022-09-01T06:37:53.617Z,12.13
2022-09-01T06:40:25.526Z,13.25
2022-09-01T06:42:53.875Z,12.01
2022-09-01T06:45:24.299Z,12.14
2022-09-01T06:47:57.625Z,11.67
2022-09-01T06:56:10.252Z,9.26
2022-09-01T06:58:40.468Z,9.37
2022-09-01T07:01:12.313Z,8.58
2022-09-01T07:03:40.684Z,8.89
2022-09-01T07:06:58.685Z,7.98
2022-09-01T07:16:30.202Z,6.54
2022-09-01T07:17:26.903Z,7.82
2022-09-01T07:19:56.197Z,9.18
2022-09-01T07:23:03.515Z,9.45
2022-09-01T07:25:13.413Z,10.81
2022-09-01T07:27:45.545Z,11.01
2022-09-01T07:30:14.079Z,11.78
2022-09-01T07:32:47.463Z,11.52
2022-09-01T07:35:18.351Z,10.47
2022-09-01T07:38:48.216Z,10.07
2022-09-01T07:42:30.902Z,10.13
2022-09-01T07:43:32.700Z,9.08
2022-09-01T07:49:29.219Z,8.48
2022-09-01T07:51:45.715Z,9.05
2022-09-01T07:54:14.398Z,8.80
2022-09-01T07:56:42.877Z,9.29
2022-09-01T07:59:15.692Z,9.00
2022-09-01T08:01:44.600Z,8.60
2022-09-01T08:04:13.177Z,7.99
2022-09-01T08:06:41.748Z,7.70
2022-09-01T08:09:11.951Z,7.45
2022-09-01T08:12:02.051Z,6.14
2022-09-01T08:14:34.272Z,6.66
2022-09-01T08:17:34.182Z,6.57
2022-09-01T08:19:53.817Z,5.93
2022-09-01T08:22:25.518Z,5.56
2022-09-01T08:24:54.745Z,4.84
2022-09-01T08:27:24.055Z,5.43
2022-09-01T08:29:54.014Z,4.91
2022-09-01T08:32:22.767Z,5.26
2022-09-01T08:34:51.567Z,5.20
2022-09-01T08:37:20.439Z,5.94
2022-09-01T08:39:49.637Z,5.34
2022-09-01T08:42:25.896Z,4.95
2022-09-01T08:45:05.901Z,4.09
2022-09-01T08:47:49.203Z,4.39
2022-09-01T08:50:23.839Z,3.34
2022-09-01T08:53:09.035Z,4.25
2022-09-01T08:55:41.181Z,6.38
2022-09-01T08:58:11.056Z,7.43
2022-09-01T09:00:49.305Z,5.71
2022-09-01T09:03:40.188Z,6.22
2022-09-01T09:06:16.767Z,5.49
2022-09-01T09:08:54.387Z,6.11
2022-09-01T09:11:52.140Z,5.63
2022-09-01T09:14:30.723Z,4.54
2022-09-01T09:17:00.580Z,4.58
2022-09-01T09:19:32.601Z,4.63
2022-09-01T09:22:03.489Z,3.63
2022-09-01T09:24:47.672Z,2.46
2022-09-01T09:27:19.909Z,1.75
2022-09-01T09:29:51.249Z,2.24
2022-09-01T09:32:35.100Z,2.31
2022-09-01T09:35:23.297Z,2.29
2022-09-01T09:37:51.713Z,4.22
2022-09-01T09:40:22.616Z,4.05
2022-09-01T09:43:05.015Z,3.89
2022-09-01T09:45:36.367Z,3.29
2022-09-01T09:48:14.060Z,2.74
2022-09-01T09:50:44.182Z,2.38
2022-09-01T09:53:17.204Z,1.74
2022-09-01T09:55:56.712Z,2.31
2022-09-01T09:58:27.848Z,3.67
2022-09-01T10:01:06.604Z,4.85
2022-09-01T10:03:40.811Z,4.20
2022-09-01T10:06:12.548Z,3.61
2022-09-01T10:08:45.394Z,2.33
2022-09-01T10:11:33.499Z,1.43
2022-09-01T10:14:05.929Z,0.35
2022-09-01T10:16:39.052Z,0.69
2022-09-01T10:19:13.524Z,1.72
2022-09-01T10:21:46.182Z,3.36
2022-09-01T10:24:22.334Z,5.17
2022-09-01T10:26:57.005Z,6.72
2022-09-01T10:29:27.168Z,7.29
2022-09-01T10:32:14.721Z,6.46
2022-09-01T10:34:45.668Z,7.30
2022-09-01T10:37:16.168Z,6.09
2022-09-01T10:40:13.961Z,4.79
2022-09-01T10:42:45.374Z,5.59
2022-09-01T10:45:23.654Z,4.13
2022-09-01T10:47:52.345Z,2.40
2022-09-01T10:50:35.430Z,1.17
2022-09-01T10:53:08.480Z,2.05
2022-09-01T10:55:43.195Z,3.15
2022-09-01T11:05:19.827Z,1.78
2022-09-01T11:08:00.492Z,2.29
2022-09-01T11:10:51.625Z,3.52
2022-09-01T11:13:36.585Z,5.28
2022-09-01T11:19:25.918Z,5.05
2022-09-01T11:22:07.127Z,4.62
2022-09-01T11:25:02.490Z,6.31
2022-09-01T11:28:05.277Z,7.91
2022-09-01T11:30:52.305Z,8.92
2022-09-01T11:33:32.789Z,9.59
2022-09-01T11:36:03.214Z,9.75
2022-09-01T11:38:33.968Z,9.45
2022-09-01T11:41:03.726Z,10.31
2022-09-01T11:43:32.393Z,10.01
2022-09-01T11:46:09.069Z,9.59
2022-09-01T11:48:40.431Z,9.48
2022-09-01T11:51:08.593Z,10.19
2022-09-01T11:53:44.058Z,10.29
2022-09-01T11:56:17.578Z,10.23
2022-09-01T11:58:46.089Z,10.32
2022-09-01T12:01:17.420Z,9.38
2022-09-01T12:03:47.352Z,9.83
2022-09-01T12:06:21.369Z,9.38
2022-09-01T12:08:55.557Z,9.58
2022-09-01T12:11:30.498Z,10.29
2022-09-01T12:14:01.192Z,10.05
2022-09-01T12:16:31.259Z,10.11
2022-09-01T12:19:00.568Z,10.15
2022-09-01T12:21:31.564Z,9.72
2022-09-01T12:24:13.680Z,9.56
2022-09-01T12:26:43.846Z,10.57
2022-09-01T12:29:13.873Z,10.58
2022-09-01T12:31:43.371Z,9.99
2022-09-01T12:34:26.195Z,9.80
2022-09-01T12:37:05.630Z,10.16
2022-09-01T12:39:38.353Z,10.65
2022-09-01T12:42:25.235Z,9.98
2022-09-01T12:44:56.280Z,10.46
2022-09-01T12:47:50.566Z,10.07
2022-09-01T12:50:38.614Z,10.53
2022-09-01T12:53:16.854Z,10.40
2022-09-01T12:55:57.384Z,10.77
2022-09-01T12:58:29.648Z,10.59
2022-09-01T13:01:03.608Z,10.63
2022-09-01T13:03:34.648Z,10.52
2022-09-01T13:06:04.885Z,10.85
2022-09-01T13:08:36.098Z,11.25
2022-09-01T13:11:09.144Z,11.39
2022-09-01T13:13:41.021Z,11.24
2022-09-01T13:16:13.114Z,11.75
2022-09-01T13:21:35.281Z,12.02
2022-09-01T13:24:05.267Z,11.93
2022-09-01T13:26:33.658Z,12.11
2022-09-01T13:29:03.180Z,12.07
2022-09-01T13:31:36.866Z,12.20
2022-09-01T13:34:22.408Z,12.37
2022-09-01T13:36:52.890Z,12.47
2022-09-01T13:39:22.745Z,13.00
2022-09-01T13:41:51.028Z,12.86
2022-09-01T13:44:20.792Z,12.75
2022-09-01T13:50:06.681Z,12.89
2022-09-01T13:52:25.995Z,12.99
2022-09-01T13:54:54.297Z,12.72
2022-09-01T13:57:22.447Z,12.58
2022-09-01T13:59:52.043Z,12.16
2022-09-01T14:02:20.657Z,11.97
2022-09-01T14:04:48.874Z,12.87
2022-09-01T14:07:18.959Z,12.49
2022-09-01T14:09:47.613Z,12.33
2022-09-01T14:12:15.994Z,12.18
2022-09-01T14:17:33.788Z,12.33
2022-09-01T14:20:02.067Z,12.40
2022-09-01T14:22:32.328Z,12.47
2022-09-01T14:25:02.919Z,12.95
2022-09-01T14:27:31.049Z,12.19
2022-09-01T14:29:59.145Z,12.40
2022-09-01T14:32:28.277Z,12.55
2022-09-01T14:34:59.360Z,11.87
2022-09-01T14:37:27.611Z,11.62
2022-09-01T14:39:58.468Z,12.25
2022-09-01T14:42:29.129Z,12.20
2022-09-01T14:44:57.589Z,11.85
2022-09-01T14:47:26.069Z,12.15
2022-09-01T14:49:54.909Z,12.56
2022-09-01T14:52:24.985Z,12.83
2022-09-01T14:54:53.701Z,13.37
2022-09-01T14:57:36.937Z,13.35
2022-09-01T15:00:10.246Z,13.09
2022-09-01T15:02:39.012Z,13.35
2022-09-01T15:05:08.652Z,13.45
2022-09-01T15:07:39.058Z,13.63
2022-09-01T15:10:09.071Z,13.76
2022-09-01T15:12:40.061Z,13.04
2022-09-01T15:15:09.786Z,13.89
2022-09-01T15:17:37.930Z,13.75
2022-09-01T15:20:33.234Z,13.67
2022-09-01T15:23:02.934Z,14.09
2022-09-01T15:25:31.414Z,14.11
2022-09-01T15:28:00.048Z,13.96
2022-09-01T15:30:28.682Z,14.57
2022-09-01T15:32:57.177Z,14.43
2022-09-01T15:35:25.744Z,14.54
2022-09-01T15:37:53.985Z,15.03
2022-09-01T15:40:24.765Z,14.77
2022-09-01T15:42:52.979Z,15.28
2022-09-01T15:45:23.063Z,15.46
2022-09-01T15:47:51.584Z,14.88
2022-09-01T15:50:22.278Z,14.79
2022-09-01T15:52:53.718Z,14.84
2022-09-01T15:55:25.880Z,14.49
2022-09-01T15:57:55.066Z,14.87
2022-09-01T16:00:25.466Z,15.11
2022-09-01T16:02:56.646Z,14.83
2022-09-01T16:05:26.195Z,14.16
2022-09-01T16:10:32.454Z,14.79
2022-09-01T16:13:03.383Z,14.53
2022-09-01T16:15:32.604Z,14.34
2022-09-01T16:18:20.063Z,14.11
2022-09-01T16:20:55.144Z,14.44
2022-09-01T16:23:24.441Z,14.82
2022-09-01T16:25:54.801Z,14.57
2022-09-01T16:28:26.927Z,15.03
2022-09-01T16:30:59.505Z,14.87
2022-09-01T16:33:27.621Z,15.32
2022-09-01T16:36:17.334Z,15.06
2022-09-01T16:38:49.255Z,15.48
2022-09-01T16:41:28.316Z,15.00
2022-09-01T16:44:03.658Z,15.31
2022-09-01T16:46:35.694Z,15.25
2022-09-01T16:49:14.659Z,14.99
2022-09-01T16:51:50.305Z,15.27
2022-09-01T16:54:25.002Z,15.72
2022-09-01T16:57:00.525Z,15.78
2022-09-01T16:59:35.337Z,16.14
2022-09-01T17:02:10.740Z,15.73
2022-09-01T17:04:43.520Z,15.92
2022-09-01T17:07:16.882Z,15.60
2022-09-01T17:09:47.101Z,16.45
2022-09-01T17:12:30.580Z,16.42
2022-09-01T17:15:00.474Z,16.56
2022-09-01T17:17:35.694Z,16.63
2022-09-01T17:20:07.022Z,17.19
2022-09-01T17:22:35.520Z,17.76
2022-09-01T17:25:07.906Z,17.63
2022-09-01T17:27:41.231Z,17.75
2022-09-01T17:30:10.350Z,17.59
2022-09-01T17:33:08.838Z,17.62
2022-09-01T17:35:58.744Z,18.22
2022-09-01T17:38:32.467Z,18.02
2022-09-01T17:41:08.057Z,18.24
2022-09-01T17:43:48.637Z,17.89
2022-09-01T17:46:22.861Z,17.95
2022-09-01T17:48:54.424Z,18.60
2022-09-01T17:51:26.963Z,18.40
2022-09-01T17:54:01.905Z,18.55
2022-09-01T17:56:42.465Z,18.68
2022-09-01T17:59:17.168Z,19.07
2022-09-01T18:01:53.194Z,19.26
2022-09-01T18:04:49.013Z,18.74
2022-09-01T18:07:28.473Z,18.69
2022-09-01T18:09:58.050Z,19.13
2022-09-01T18:12:28.745Z,19.35
2022-09-01T18:15:05.089Z,19.29
2022-09-01T18:17:35.663Z,19.66
2022-09-01T18:20:10.240Z,19.77
2022-09-01T18:22:43.136Z,19.43
2022-09-01T18:25:17.510Z,19.16
2022-09-01T18:27:47.659Z,19.18
2022-09-01T18:30:36.326Z,18.78
2022-09-01T18:33:14.515Z,19.17
2022-09-01T18:35:48.378Z,19.12
2022-09-01T18:38:22.887Z,19.10
2022-09-01T18:41:09.554Z,19.00
2022-09-01T18:43:39.572Z,19.95
2022-09-01T18:46:16.290Z,19.28
2022-09-01T18:48:56.429Z,19.23
2022-09-01T18:51:29.396Z,19.71
2022-09-01T18:54:00.739Z,19.83
2022-09-01T18:56:37.822Z,19.62
2022-09-01T18:59:17.564Z,19.56
2022-09-01T19:01:58.107Z,19.54
2022-09-01T19:04:31.815Z,19.79
2022-09-01T19:07:05.899Z,19.62
2022-09-01T19:09:36.346Z,19.90
2022-09-01T19:12:14.210Z,19.90
2022-09-01T19:14:47.549Z,19.48
2022-09-01T19:17:31.593Z,19.35
2022-09-01T19:20:01.818Z,20.04
2022-09-01T19:22:36.906Z,20.22
2022-09-01T19:25:25.987Z,20.33
2022-09-01T19:27:58.487Z,20.55
2022-09-01T19:30:27.034Z,20.94
2022-09-01T19:32:56.897Z,20.47
2022-09-01T19:35:25.288Z,20.92
2022-09-01T19:37:53.716Z,21.42
2022-09-01T19:40:25.421Z,20.94
2022-09-01T19:42:57.251Z,21.37
2022-09-01T19:45:29.356Z,21.12
2022-09-01T19:48:08.052Z,21.16
2022-09-01T19:50:38.804Z,21.32
2022-09-01T19:53:11.192Z,21.32
2022-09-01T19:55:43.532Z,21.45
2022-09-01T19:58:14.506Z,21.62
2022-09-01T20:00:51.152Z,21.53
2022-09-01T20:03:25.358Z,21.63
2022-09-01T20:05:57.251Z,21.60
2022-09-01T20:08:31.197Z,21.75
2022-09-01T20:11:03.227Z,21.66
2022-09-01T20:13:44.727Z,22.12
2022-09-01T20:16:20.933Z,22.05
2022-09-01T20:18:53.549Z,22.35
2022-09-01T20:21:22.337Z,22.44
2022-09-01T20:23:54.552Z,22.41
2022-09-01T20:26:26.962Z,22.44
2022-09-01T20:29:01.304Z,22.36
2022-09-01T20:31:32.446Z,22.46
2022-09-01T20:34:07.962Z,22.39
2022-09-01T20:36:41.008Z,22.45
2022-09-01T20:39:30.029Z,22.52
2022-09-01T20:42:02.640Z,23.07
2022-09-01T20:44:37.087Z,23.10
2022-09-01T20:47:06.351Z,23.22
2022-09-01T20:49:38.458Z,22.86
2022-09-01T20:52:11.342Z,23.08
2022-09-01T20:54:43.337Z,23.05
2022-09-01T20:57:22.017Z,22.58
2022-09-01T20:59:52.292Z,23.16
2022-09-01T21:02:39.516Z,23.00
2022-09-01T21:05:19.478Z,22.80
2022-09-01T21:07:56.727Z,23.38
2022-09-01T21:10:32.030Z,23.17
2022-09-01T21:13:14.840Z,23.32
2022-09-01T21:15:46.377Z,23.72
2022-09-01T21:18:28.402Z,23.42
2022-09-01T21:21:01.763Z,23.97
2022-09-01T21:23:31.161Z,23.75
2022-09-01T21:25:59.741Z,24.03
2022-09-01T21:28:29.383Z,23.68
2022-09-01T21:31:00.043Z,23.48
2022-09-01T21:33:30.237Z,23.86
2022-09-01T21:36:00.605Z,23.80
2022-09-01T21:38:30.113Z,23.88
2022-09-01T21:41:00.379Z,24.26
2022-09-01T21:43:31.766Z,24.31
2022-09-01T21:46:00.488Z,24.78
2022-09-01T21:48:29.181Z,24.93
2022-09-01T21:50:59.129Z,24.79
2022-09-01T21:53:27.594Z,24.48
2022-09-01T21:55:55.865Z,24.95
2022-09-01T21:58:24.220Z,25.30
2022-09-01T22:04:58.096Z,24.99
2022-09-01T22:07:28.855Z,25.32
2022-09-01T22:09:57.881Z,25.58
2022-09-01T22:12:26.090Z,25.42
2022-09-01T22:14:54.547Z,26.06
2022-09-01T22:17:22.908Z,25.92
2022-09-01T22:19:53.028Z,26.30
2022-09-01T22:22:21.434Z,26.33
2022-09-01T22:24:51.200Z,26.14
2022-09-01T22:27:19.477Z,26.51
2022-09-01T22:29:47.876Z,26.40
2022-09-01T22:32:15.997Z,26.26
2022-09-01T22:34:44.277Z,26.74
2022-09-01T22:37:12.789Z,27.01
2022-09-01T22:39:41.100Z,27.02
2022-09-01T22:42:10.599Z,27.42
2022-09-01T22:44:38.986Z,27.90
2022-09-01T22:47:07.834Z,27.93
2022-09-01T22:49:35.981Z,27.59
2022-09-01T22:52:04.734Z,27.96
2022-09-01T22:54:32.837Z,28.21
2022-09-01T22:57:02.310Z,28.74
2022-09-01T22:59:32.012Z,28.38
2022-09-01T23:02:01.262Z,28.44
2022-09-01T23:04:32.184Z,28.51
2022-09-01T23:07:00.719Z,28.38
2022-09-01T23:09:28.995Z,28.32
2022-09-01T23:11:57.405Z,28.52
2022-09-01T23:14:25.937Z,28.54
2022-09-01T23:16:55.427Z,28.29
2022-09-01T23:19:24.787Z,28.58
2022-09-01T23:21:53.375Z,28.67
2022-09-01T23:24:21.931Z,28.68
2022-09-01T23:26:50.252Z,28.81
2022-09-01T23:29:18.866Z,28.87
2022-09-01T23:31:47.061Z,28.86
2022-09-01T23:34:18.309Z,28.50
2022-09-01T23:36:47.004Z,28.61
2022-09-01T23:39:15.557Z,28.49
2022-09-01T23:41:43.772Z,28.38
2022-09-01T23:44:14.368Z,28.38
2022-09-01T23:46:44.699Z,28.54
2022-09-01T23:49:14.527Z,28.71
2022-09-01T23:51:44.229Z,28.49
2022-09-01T23:54:13.488Z,28.94
2022-09-01T23:56:41.934Z,28.92
2022-09-01T23:59:10.080Z,28.92
